createdAt,value
2022-09-23T00:00:15.619Z,101846.03
2022-09-23T00:03:17.025Z,101839.00
2022-09-23T00:06:21.865Z,101829.34
2022-09-23T00:09:23.260Z,101838.97
2022-09-23T00:12:24.722Z,101831.06
2022-09-23T00:15:26.354Z,101824.91
2022-09-23T00:18:27.775Z,101826.66
2022-09-23T00:21:29.334Z,101823.19
2022-09-23T00:24:30.742Z,101818.81
2022-09-23T00:27:32.294Z,101819.72
2022-09-23T00:30:33.785Z,101825.88
2022-09-23T00:33:35.337Z,101818.03
2022-09-23T00:36:36.769Z,101821.56
2022-09-23T00:39:38.206Z,101816.34
2022-09-23T00:42:48.772Z,101818.94
2022-09-23T00:45:51.167Z,101820.75
2022-09-23T00:48:59.113Z,101812.81
2022-09-23T00:52:10.859Z,101816.34
2022-09-23T00:55:17.449Z,101811.09
2022-09-23T00:58:25.708Z,101799.66
2022-09-23T01:01:27.403Z,101804.94
2022-09-23T01:04:30.073Z,101803.22
2022-09-23T01:07:31.488Z,101795.31
2022-09-23T01:11:10.573Z,101788.34
2022-09-23T01:14:27.250Z,101800.59
2022-09-23T01:17:40.414Z,101797.13
2022-09-23T01:20:53.942Z,101797.09
2022-09-23T01:24:23.183Z,101792.69
2022-09-23T01:27:42.805Z,101792.69
2022-09-23T01:31:09.413Z,101793.53
2022-09-23T01:34:15.225Z,101779.50
2022-09-23T01:37:46.773Z,101775.13
2022-09-23T01:40:54.260Z,101777.72
2022-09-23T01:44:07.978Z,101776.84
2022-09-23T01:47:17.713Z,101778.56
2022-09-23T01:50:41.279Z,101773.31
2022-09-23T01:54:06.988Z,101775.09
2022-09-23T01:57:18.459Z,101763.72
2022-09-23T02:00:23.255Z,101762.88
2022-09-23T02:03:37.007Z,101761.94
2022-09-23T02:06:51.856Z,101759.34
2022-09-23T02:10:15.420Z,101754.09
2022-09-23T02:13:27.936Z,101755.84
2022-09-23T02:16:46.553Z,101756.75
2022-09-23T02:19:56.327Z,101748.00
2022-09-23T02:23:22.826Z,101743.63
2022-09-23T02:26:36.937Z,101740.16
2022-09-23T02:29:58.754Z,101744.53
2022-09-23T02:33:10.204Z,101744.53
2022-09-23T02:36:32.322Z,101741.91
2022-09-23T02:39:43.257Z,101731.41
2022-09-23T02:42:59.282Z,101725.28
2022-09-23T02:46:02.438Z,101722.63
2022-09-23T02:49:14.965Z,101721.75
2022-09-23T02:52:16.436Z,101712.97
2022-09-23T02:55:20.652Z,101716.47
2022-09-23T02:58:22.094Z,101720.88
2022-09-23T03:01:44.677Z,101714.72
2022-09-23T03:05:09.131Z,101711.16
2022-09-23T03:08:28.781Z,101709.44
2022-09-23T03:11:30.343Z,101711.16
2022-09-23T03:14:49.417Z,101704.16
2022-09-23T03:18:06.134Z,101697.97
2022-09-23T03:21:16.138Z,101700.59
2022-09-23T03:24:19.875Z,101693.56
2022-09-23T03:27:28.320Z,101701.41
2022-09-23T03:30:32.512Z,101697.88
2022-09-23T03:33:34.298Z,101699.66
2022-09-23T03:36:54.352Z,101698.78
2022-09-23T03:40:07.210Z,101703.16
2022-09-23T03:43:10.340Z,101702.28
2022-09-23T03:46:13.105Z,101698.72
2022-09-23T03:49:18.478Z,101688.09
2022-09-23T03:52:22.345Z,101688.03
2022-09-23T03:55:23.841Z,101685.41
2022-09-23T03:58:25.268Z,101677.41
2022-09-23T04:01:26.853Z,101668.50
2022-09-23T04:04:29.047Z,101666.72
2022-09-23T04:07:30.884Z,101658.72
2022-09-23T04:10:32.372Z,101659.56
2022-09-23T04:13:33.806Z,101656.81
2022-09-23T04:16:35.299Z,101644.41
2022-09-23T04:19:36.853Z,101644.31
2022-09-23T04:22:38.251Z,101645.16
2022-09-23T04:25:47.335Z,101646.06
2022-09-23T04:28:48.735Z,101646.94
2022-09-23T04:31:51.262Z,101646.09
2022-09-23T04:34:52.725Z,101646.94
2022-09-23T04:37:54.131Z,101646.94
2022-09-23T04:40:55.555Z,101647.84
2022-09-23T04:43:57.187Z,101646.91
2022-09-23T04:46:58.646Z,101647.75
2022-09-23T04:50:00.188Z,101649.50
2022-09-23T04:53:01.678Z,101646.81
2022-09-23T04:56:15.321Z,101643.28
2022-09-23T04:59:16.797Z,101650.25
2022-09-23T05:02:18.251Z,101650.22
2022-09-23T05:05:19.792Z,101654.56
2022-09-23T05:08:21.214Z,101653.66
2022-09-23T05:11:24.192Z,101657.19
2022-09-23T05:14:25.587Z,101655.44
2022-09-23T05:17:27.045Z,101662.47
2022-09-23T05:20:28.468Z,101656.31
2022-09-23T05:23:30.295Z,101658.03
2022-09-23T05:26:32.905Z,101653.59
2022-09-23T05:29:34.605Z,101648.28
2022-09-23T05:32:36.034Z,101655.25
2022-09-23T05:35:37.508Z,101658.72
2022-09-23T05:38:39.477Z,101648.94
2022-09-23T05:41:40.969Z,101654.16
2022-09-23T05:44:42.376Z,101662.91
2022-09-23T05:47:43.860Z,101666.28
2022-09-23T05:50:51.977Z,101660.94
2022-09-23T05:53:55.512Z,101661.75
2022-09-23T05:56:58.441Z,101663.50
2022-09-23T06:00:02.144Z,101659.00
2022-09-23T06:03:14.858Z,101662.31
2022-09-23T06:06:17.932Z,101655.13
2022-09-23T06:09:19.380Z,101662.97
2022-09-23T06:12:20.776Z,101662.88
2022-09-23T06:15:22.214Z,101663.59
2022-09-23T06:18:23.626Z,101660.84
2022-09-23T06:21:25.065Z,101664.19
2022-09-23T06:24:30.985Z,101658.75
2022-09-23T06:27:32.859Z,101657.66
2022-09-23T06:30:34.292Z,101657.53
2022-09-23T06:33:37.358Z,101653.81
2022-09-23T06:36:43.727Z,101660.75
2022-09-23T06:39:46.233Z,101656.22
2022-09-23T06:42:52.058Z,101660.50
2022-09-23T06:46:01.358Z,101658.59
2022-09-23T06:49:02.786Z,101660.19
2022-09-23T06:52:04.236Z,101656.38
2022-09-23T06:55:06.675Z,101652.69
2022-09-23T06:58:08.132Z,101653.38
2022-09-23T07:01:12.964Z,101657.66
2022-09-23T07:04:14.503Z,101642.22
2022-09-23T07:07:15.950Z,101650.03
2022-09-23T07:10:17.356Z,101648.94
2022-09-23T07:13:18.851Z,101650.50
2022-09-23T07:16:20.313Z,101647.59
2022-09-23T07:19:21.796Z,101648.16
2022-09-23T07:22:23.345Z,101642.41
2022-09-23T07:25:24.797Z,101646.22
2022-09-23T07:28:26.236Z,101647.97
2022-09-23T07:31:38.252Z,101648.50
2022-09-23T07:34:41.309Z,101647.22
2022-09-23T07:37:42.767Z,101637.31
2022-09-23T07:40:44.296Z,101648.19
2022-09-23T07:43:46.450Z,101647.00
2022-09-23T07:46:48.978Z,101639.72
2022-09-23T07:49:50.427Z,101644.03
2022-09-23T07:52:51.843Z,101646.84
2022-09-23T07:55:56.634Z,101645.78
2022-09-23T07:58:58.085Z,101650.03
2022-09-23T08:01:59.609Z,101648.59
2022-09-23T08:05:01.071Z,101654.69
2022-09-23T08:08:02.759Z,101653.47
2022-09-23T08:11:06.624Z,101650.44
2022-09-23T08:14:09.446Z,101659.03
2022-09-23T08:17:14.079Z,101656.97
2022-09-23T08:20:15.558Z,101652.06
2022-09-23T08:23:17.620Z,101652.81
2022-09-23T08:26:22.148Z,101656.06
2022-09-23T08:29:25.407Z,101648.31
2022-09-23T08:32:26.822Z,101648.56
2022-09-23T08:35:28.968Z,101653.84
2022-09-23T08:38:30.403Z,101648.38
2022-09-23T08:41:40.547Z,101654.34
2022-09-23T08:44:58.467Z,101644.38
2022-09-23T08:48:13.809Z,101651.34
2022-09-23T08:51:22.463Z,101652.81
2022-09-23T08:54:30.477Z,101657.47
2022-09-23T08:57:42.638Z,101655.56
2022-09-23T09:00:48.077Z,101660.13
2022-09-23T09:03:53.918Z,101652.88
2022-09-23T09:10:40.316Z,101664.88
2022-09-23T09:14:07.241Z,101652.88
2022-09-23T09:17:18.830Z,101666.28
2022-09-23T09:20:29.298Z,101662.13
2022-09-23T09:23:30.697Z,101657.16
2022-09-23T09:26:33.838Z,101663.31
2022-09-23T09:29:42.087Z,101652.72
2022-09-23T09:33:15.414Z,101642.28
2022-09-23T09:36:52.444Z,101644.34
2022-09-23T09:39:53.957Z,101647.41
2022-09-23T09:42:55.455Z,101642.47
2022-09-23T09:46:55.004Z,101635.81
2022-09-23T09:50:03.056Z,101639.19
2022-09-23T09:53:22.533Z,101629.50
2022-09-23T09:56:35.727Z,101632.91
2022-09-23T09:59:37.313Z,101625.81
2022-09-23T10:02:40.624Z,101626.53
2022-09-23T10:05:45.036Z,101618.06
2022-09-23T10:09:09.044Z,101618.38
2022-09-23T10:12:21.724Z,101621.28
2022-09-23T10:15:47.642Z,101614.44
2022-09-23T10:18:51.161Z,101621.72
2022-09-23T10:21:59.166Z,101619.06
2022-09-23T10:25:07.646Z,101617.50
2022-09-23T10:28:38.214Z,101612.66
2022-09-23T10:31:39.673Z,101619.81
2022-09-23T10:34:45.887Z,101613.25
2022-09-23T10:37:55.203Z,101614.66
2022-09-23T10:40:56.789Z,101609.41
2022-09-23T10:43:58.221Z,101609.53
2022-09-23T10:47:09.758Z,101616.50
2022-09-23T10:50:20.194Z,101616.38
2022-09-23T10:53:28.470Z,101615.31
2022-09-23T10:56:41.357Z,101618.59
2022-09-23T11:00:10.742Z,101620.28
2022-09-23T11:03:30.988Z,101615.28
2022-09-23T11:06:47.349Z,101614.97
2022-09-23T11:10:35.229Z,101614.13
2022-09-23T11:14:08.213Z,101604.06
2022-09-23T11:17:27.995Z,101600.31
2022-09-23T11:20:51.695Z,101605.22
2022-09-23T11:23:56.291Z,101602.75
2022-09-23T11:27:35.692Z,101613.09
2022-09-23T11:30:49.565Z,101600.69
2022-09-23T11:33:56.859Z,101595.66
2022-09-23T11:37:11.201Z,101584.00
2022-09-23T11:40:15.729Z,101588.31
2022-09-23T11:43:24.867Z,101584.41
2022-09-23T11:46:48.189Z,101589.75
2022-09-23T11:49:53.475Z,101587.78
2022-09-23T11:53:05.600Z,101581.00
2022-09-23T11:56:33.900Z,101569.16
2022-09-23T11:59:45.570Z,101578.41
2022-09-23T12:03:13.650Z,101574.84
2022-09-23T12:06:21.295Z,101573.75
2022-09-23T12:09:54.100Z,101572.41
2022-09-23T12:12:58.042Z,101570.38
2022-09-23T12:16:44.144Z,101558.66
2022-09-23T12:20:00.664Z,101556.59
2022-09-23T12:23:13.900Z,101561.97
2022-09-23T12:26:19.790Z,101561.41
2022-09-23T12:29:24.482Z,101562.75
2022-09-23T12:32:26.557Z,101550.41
2022-09-23T12:35:38.289Z,101555.66
2022-09-23T12:38:52.262Z,101552.25
2022-09-23T12:41:57.206Z,101551.38
2022-09-23T12:45:32.890Z,101542.50
2022-09-23T12:48:54.230Z,101534.78
2022-09-23T12:52:24.817Z,101534.69
2022-09-23T12:55:35.308Z,101532.59
2022-09-23T12:58:42.549Z,101530.84
2022-09-23T13:01:44.744Z,101536.63
2022-09-23T13:04:56.875Z,101541.56
2022-09-23T13:08:05.015Z,101533.22
2022-09-23T13:11:21.771Z,101540.03
2022-09-23T13:14:27.587Z,101543.28
2022-09-23T13:17:33.254Z,101534.63
2022-09-23T13:20:36.958Z,101525.91
2022-09-23T13:23:38.398Z,101530.41
2022-09-23T13:26:45.421Z,101515.84
2022-09-23T13:30:15.846Z,101514.34
2022-09-23T13:33:26.558Z,101507.59
2022-09-23T13:36:28.211Z,101521.66
2022-09-23T13:39:29.616Z,101508.66
2022-09-23T13:42:31.201Z,101515.53
2022-09-23T13:45:37.923Z,101510.38
2022-09-23T13:48:40.885Z,101507.97
2022-09-23T13:51:44.843Z,101510.97
2022-09-23T13:54:49.889Z,101507.25
2022-09-23T13:58:04.020Z,101501.91
2022-09-23T14:01:09.787Z,101503.28
2022-09-23T14:04:23.759Z,101492.00
2022-09-23T14:07:25.891Z,101495.13
2022-09-23T14:10:27.701Z,101493.09
2022-09-23T14:13:31.737Z,101481.16
2022-09-23T14:16:37.786Z,101475.25
2022-09-23T14:19:42.198Z,101483.81
2022-09-23T14:22:43.942Z,101474.38
2022-09-23T14:25:46.812Z,101471.16
2022-09-23T14:28:48.453Z,101468.25
2022-09-23T14:31:57.020Z,101472.78
2022-09-23T14:35:01.617Z,101474.72
2022-09-23T14:38:03.280Z,101465.91
2022-09-23T14:41:04.728Z,101469.28
2022-09-23T14:44:07.761Z,101464.06
2022-09-23T14:47:14.284Z,101460.94
2022-09-23T14:50:21.414Z,101460.19
2022-09-23T14:53:22.803Z,101459.59
2022-09-23T14:56:25.373Z,101456.38
2022-09-23T14:59:32.599Z,101459.03
2022-09-23T15:02:36.902Z,101458.84
2022-09-23T15:05:42.721Z,101455.06
2022-09-23T15:08:45.100Z,101453.34
2022-09-23T15:11:47.256Z,101460.47
2022-09-23T15:14:54.917Z,101458.31
2022-09-23T15:18:03.742Z,101448.50
2022-09-23T15:21:12.912Z,101446.66
2022-09-23T15:24:46.997Z,101446.47
2022-09-23T15:28:19.269Z,101451.50
2022-09-23T15:31:23.111Z,101440.88
2022-09-23T15:34:24.631Z,101441.41
2022-09-23T15:37:26.126Z,101437.81
2022-09-23T15:40:30.125Z,101442.88
2022-09-23T15:43:31.548Z,101436.31
2022-09-23T15:46:33.042Z,101436.56
2022-09-23T15:49:36.513Z,101443.22
2022-09-23T15:52:37.963Z,101444.53
2022-09-23T15:55:39.399Z,101447.50
2022-09-23T15:58:40.903Z,101440.00
2022-09-23T16:01:42.883Z,101458.91
2022-09-23T16:04:44.486Z,101456.56
2022-09-23T16:07:46.013Z,101456.94
2022-09-23T16:10:47.444Z,101462.56
2022-09-23T16:13:49.216Z,101462.91
2022-09-23T16:16:50.691Z,101470.31
2022-09-23T16:19:52.127Z,101467.06
2022-09-23T16:22:55.798Z,101471.88
2022-09-23T16:25:57.249Z,101465.88
2022-09-23T16:28:59.336Z,101460.78
2022-09-23T16:32:01.069Z,101463.78
2022-09-23T16:35:02.634Z,101455.03
2022-09-23T16:38:04.187Z,101449.84
2022-09-23T16:41:05.648Z,101447.41
2022-09-23T16:44:07.610Z,101441.25
2022-09-23T16:47:09.104Z,101445.88
2022-09-23T16:50:15.590Z,101451.19
2022-09-23T16:53:17.003Z,101446.84
2022-09-23T16:56:24.382Z,101447.72
2022-09-23T16:59:29.528Z,101443.34
2022-09-23T17:02:30.971Z,101440.69
2022-09-23T17:05:32.514Z,101438.09
2022-09-23T17:08:34.072Z,101443.44
2022-09-23T17:11:35.548Z,101439.03
2022-09-23T17:14:37.059Z,101440.09
2022-09-23T17:17:38.815Z,101433.94
2022-09-23T17:20:40.249Z,101432.22
2022-09-23T17:23:41.698Z,101438.53
2022-09-23T17:26:43.130Z,101431.50
2022-09-23T17:29:44.605Z,101438.69
2022-09-23T17:32:46.028Z,101439.78
2022-09-23T17:35:47.519Z,101436.28
2022-09-23T17:38:50.139Z,101431.81
2022-09-23T17:41:51.556Z,101432.81
2022-09-23T17:44:53.178Z,101425.91
2022-09-23T17:47:54.598Z,101425.16
2022-09-23T17:51:01.371Z,101421.53
2022-09-23T17:54:02.797Z,101420.69
2022-09-23T17:57:04.290Z,101416.44
2022-09-23T18:00:06.276Z,101419.16
2022-09-23T18:03:13.137Z,101418.19
2022-09-23T18:06:17.286Z,101418.94
2022-09-23T18:09:18.622Z,101420.69
2022-09-23T18:12:20.058Z,101415.47
2022-09-23T18:15:21.561Z,101423.50
2022-09-23T18:18:22.988Z,101417.44
2022-09-23T18:21:27.323Z,101426.31
2022-09-23T18:24:32.432Z,101423.69
2022-09-23T18:27:34.740Z,101417.59
2022-09-23T18:30:36.194Z,101422.00
2022-09-23T18:33:38.141Z,101422.91
2022-09-23T18:36:40.012Z,101429.13
2022-09-23T18:39:41.425Z,101428.31
2022-09-23T18:42:42.884Z,101424.88
2022-09-23T18:45:54.499Z,101431.19
2022-09-23T18:48:56.518Z,101430.28
2022-09-23T18:51:58.315Z,101425.97
2022-09-23T18:54:59.738Z,101431.22
2022-09-23T18:58:01.476Z,101432.00
2022-09-23T19:01:08.363Z,101433.63
2022-09-23T19:04:10.286Z,101439.81
2022-09-23T19:07:11.764Z,101446.19
2022-09-23T19:10:13.195Z,101441.06
2022-09-23T19:13:14.659Z,101440.38
2022-09-23T19:16:16.935Z,101438.94
2022-09-23T19:19:18.501Z,101436.50
2022-09-23T19:22:19.900Z,101434.94
2022-09-23T19:25:21.332Z,101428.19
2022-09-23T19:28:22.814Z,101439.03
2022-09-23T19:31:30.071Z,101434.78
2022-09-23T19:34:31.768Z,101438.59
2022-09-23T19:37:33.180Z,101430.81
2022-09-23T19:40:34.668Z,101429.22
2022-09-23T19:43:36.138Z,101431.03
2022-09-23T19:46:40.052Z,101425.00
2022-09-23T19:49:41.533Z,101421.63
2022-09-23T19:52:42.962Z,101425.22
2022-09-23T19:55:44.412Z,101422.66
2022-09-23T19:58:47.852Z,101414.72
2022-09-23T20:01:49.416Z,101427.91
2022-09-23T20:04:50.921Z,101417.44
2022-09-23T20:07:52.349Z,101417.50
2022-09-23T20:10:54.767Z,101415.78
2022-09-23T20:13:58.450Z,101411.44
2022-09-23T20:16:59.895Z,101408.00
2022-09-23T20:20:01.633Z,101401.94
2022-09-23T20:23:03.148Z,101405.44
2022-09-23T20:26:06.081Z,101403.63
2022-09-23T20:29:07.733Z,101401.88
2022-09-23T20:32:10.164Z,101402.72
2022-09-23T20:35:11.607Z,101404.47
2022-09-23T20:38:13.001Z,101406.19
2022-09-23T20:41:14.424Z,101403.38
2022-09-23T20:44:15.881Z,101401.63
2022-09-23T20:47:18.505Z,101391.00
2022-09-23T20:50:19.932Z,101391.84
2022-09-23T20:53:21.334Z,101399.81
2022-09-23T20:56:23.423Z,101385.72
2022-09-23T20:59:24.852Z,101390.13
2022-09-23T21:02:26.325Z,101383.09
2022-09-23T21:05:27.779Z,101384.75
2022-09-23T21:08:30.553Z,101383.91
2022-09-23T21:11:32.339Z,101383.91
2022-09-23T21:14:33.784Z,101376.88
2022-09-23T21:17:35.223Z,101370.72
2022-09-23T21:20:36.632Z,101376.81
2022-09-23T21:23:39.184Z,101375.06
2022-09-23T21:26:40.608Z,101375.13
2022-09-23T21:29:41.987Z,101375.06
2022-09-23T21:32:43.373Z,101368.91
2022-09-23T21:35:45.825Z,101375.94
2022-09-23T21:38:47.246Z,101375.88
2022-09-23T21:41:48.656Z,101373.25
2022-09-23T21:44:50.076Z,101372.34
2022-09-23T21:47:51.512Z,101368.84
2022-09-23T21:51:14.924Z,101360.84
2022-09-23T21:54:16.604Z,101364.38
2022-09-23T21:57:18.005Z,101366.03
2022-09-23T22:00:19.529Z,101354.56
2022-09-23T22:03:20.916Z,101360.75
2022-09-23T22:06:27.122Z,101358.81
2022-09-23T22:09:28.686Z,101362.28
2022-09-23T22:12:30.121Z,101355.25
2022-09-23T22:15:31.580Z,101355.25
2022-09-23T22:18:33.000Z,101348.22
2022-09-23T22:21:38.817Z,101349.06
2022-09-23T22:24:41.520Z,101343.66
2022-09-23T22:27:42.921Z,101350.66
2022-09-23T22:30:44.352Z,101346.13
2022-09-23T22:33:49.747Z,101335.56
2022-09-23T22:36:51.189Z,101344.28
2022-09-23T22:39:53.137Z,101344.22
2022-09-23T22:42:54.540Z,101340.69
2022-09-23T22:45:55.970Z,101341.59
2022-09-23T22:48:57.355Z,101335.50
2022-09-23T22:51:59.356Z,101339.00
2022-09-23T22:55:01.219Z,101330.22
2022-09-23T22:58:21.249Z,101330.22
2022-09-23T23:01:24.225Z,101329.38
2022-09-23T23:04:25.721Z,101325.03
2022-09-23T23:07:27.176Z,101331.19
2022-09-23T23:10:28.591Z,101325.13
2022-09-23T23:13:31.142Z,101319.91
2022-09-23T23:16:32.626Z,101322.56
2022-09-23T23:19:35.635Z,101311.13
2022-09-23T23:22:37.052Z,101314.69
2022-09-23T23:25:38.449Z,101316.53
2022-09-23T23:28:41.235Z,101324.47
2022-09-23T23:31:43.534Z,101318.31
2022-09-23T23:34:45.014Z,101323.66
2022-09-23T23:37:46.426Z,101314.91
2022-09-23T23:40:47.873Z,101307.84
2022-09-23T23:43:58.287Z,101305.22
2022-09-23T23:46:59.782Z,101311.50
2022-09-23T23:50:01.281Z,101309.69
2022-09-23T23:53:02.863Z,101303.53
2022-09-23T23:56:07.330Z,101307.94
2022-09-23T23:59:08.743Z,101297.44
